createdAt,value
2018-07-20T00:01:39.265Z,2.90
2018-07-20T00:04:07.266Z,2.50
2018-07-20T00:06:35.305Z,2.77
2018-07-20T00:09:04.153Z,2.80
2018-07-20T00:11:32.137Z,2.27
2018-07-20T00:14:00.176Z,2.87
2018-07-20T00:16:28.821Z,2.63
2018-07-20T00:18:56.841Z,2.23
2018-07-20T00:21:24.827Z,2.30
2018-07-20T00:23:54.010Z,2.47
2018-07-20T00:26:21.984Z,2.80
2018-07-20T00:28:50.428Z,3.13
2018-07-20T00:31:18.711Z,2.73
2018-07-20T00:33:46.705Z,2.47
2018-07-20T00:36:14.713Z,2.77
2018-07-20T00:38:42.714Z,2.87
2018-07-20T00:41:10.733Z,2.80
2018-07-20T00:43:38.693Z,3.27
2018-07-20T00:46:06.740Z,2.63
2018-07-20T00:48:34.748Z,3.00
2018-07-20T00:51:02.750Z,2.60
2018-07-20T00:53:30.825Z,2.80
2018-07-20T00:55:58.876Z,3.10
2018-07-20T00:58:27.102Z,2.30
2018-07-20T01:00:55.108Z,2.70
2018-07-20T01:03:23.130Z,3.10
2018-07-20T01:05:51.136Z,3.00
2018-07-20T01:08:19.140Z,2.10
2018-07-20T01:10:47.133Z,2.77
2018-07-20T01:13:15.253Z,2.47
2018-07-20T01:15:43.252Z,2.50
2018-07-20T01:18:11.252Z,2.90
2018-07-20T01:20:39.232Z,2.57
2018-07-20T01:23:07.221Z,2.90
2018-07-20T01:25:35.250Z,3.20
2018-07-20T01:28:03.244Z,2.60
2018-07-20T01:30:31.257Z,2.20
2018-07-20T01:32:59.338Z,2.37
2018-07-20T01:35:27.343Z,2.80
2018-07-20T01:37:55.348Z,2.90
2018-07-20T01:40:23.340Z,2.77
2018-07-20T01:42:51.356Z,2.83
2018-07-20T01:45:19.388Z,2.40
2018-07-20T01:47:47.390Z,2.97
2018-07-20T01:50:15.567Z,2.50
2018-07-20T01:52:43.544Z,2.67
2018-07-20T01:55:11.564Z,2.70
2018-07-20T01:57:39.581Z,3.13
2018-07-20T02:00:07.709Z,2.87
2018-07-20T02:02:35.711Z,2.70
2018-07-20T02:05:03.718Z,3.23
2018-07-20T02:07:31.718Z,2.30
2018-07-20T02:09:59.725Z,2.77
2018-07-20T02:12:27.820Z,2.47
2018-07-20T02:14:55.816Z,2.83
2018-07-20T02:17:23.824Z,2.83
2018-07-20T02:19:51.817Z,2.73
2018-07-20T02:22:19.817Z,2.70
2018-07-20T02:24:47.817Z,3.00
2018-07-20T02:27:15.808Z,2.70
2018-07-20T02:29:43.797Z,2.43
2018-07-20T02:32:11.776Z,3.30
2018-07-20T02:34:39.915Z,2.53
2018-07-20T02:37:07.900Z,2.90
2018-07-20T02:39:35.928Z,2.20
2018-07-20T02:42:03.994Z,2.60
2018-07-20T02:44:32.061Z,2.90
2018-07-20T02:47:00.118Z,3.00
2018-07-20T02:49:28.102Z,2.37
2018-07-20T02:51:56.091Z,2.57
2018-07-20T02:54:24.076Z,2.70
2018-07-20T02:56:52.060Z,2.73
2018-07-20T02:59:20.540Z,2.83
2018-07-20T03:01:48.522Z,2.40
2018-07-20T03:04:16.525Z,3.33
2018-07-20T03:06:44.596Z,3.10
2018-07-20T03:09:13.640Z,3.10
2018-07-20T03:11:42.441Z,2.47
2018-07-20T03:14:10.497Z,4.70
2018-07-20T03:16:38.684Z,3.30
2018-07-20T03:19:07.991Z,2.70
2018-07-20T03:21:36.062Z,2.40
2018-07-20T03:24:04.018Z,2.43
2018-07-20T03:26:32.205Z,2.50
2018-07-20T03:29:00.189Z,2.83
2018-07-20T03:31:28.229Z,2.47
2018-07-20T03:33:56.245Z,2.83
2018-07-20T03:36:24.263Z,2.40
2018-07-20T03:38:52.249Z,2.43
2018-07-20T03:41:20.228Z,1.90
2018-07-20T03:43:48.227Z,2.93
2018-07-20T03:46:16.213Z,1.90
2018-07-20T03:48:44.196Z,2.33
2018-07-20T03:51:12.199Z,2.40
2018-07-20T03:53:40.189Z,2.20
2018-07-20T03:56:08.324Z,2.30
2018-07-20T03:58:36.324Z,2.20
2018-07-20T04:01:04.325Z,2.37
2018-07-20T04:03:32.312Z,2.50
2018-07-20T04:06:00.310Z,2.17
2018-07-20T04:08:28.300Z,2.03
2018-07-20T04:10:57.360Z,2.27
2018-07-20T04:13:25.348Z,2.30
2018-07-20T04:15:53.369Z,2.50
2018-07-20T04:18:21.343Z,2.23
2018-07-20T04:20:49.336Z,2.63
2018-07-20T04:23:17.503Z,2.53
2018-07-20T04:25:45.540Z,2.60
2018-07-20T04:28:13.586Z,2.10
2018-07-20T04:30:41.580Z,2.20
2018-07-20T04:33:09.580Z,2.00
2018-07-20T04:35:37.589Z,2.20
2018-07-20T04:38:05.576Z,2.40
2018-07-20T04:40:33.569Z,2.30
2018-07-20T04:43:01.576Z,1.97
2018-07-20T04:45:29.560Z,2.00
2018-07-20T04:47:57.576Z,2.17
2018-07-20T04:50:25.576Z,2.13
2018-07-20T04:52:53.569Z,2.20
2018-07-20T04:55:21.568Z,2.20
2018-07-20T04:57:49.570Z,1.90
2018-07-20T05:00:17.553Z,1.97
2018-07-20T05:02:45.601Z,2.87
2018-07-20T05:05:13.596Z,1.90
2018-07-20T05:07:41.617Z,1.93
2018-07-20T05:10:09.609Z,1.70
2018-07-20T05:12:37.614Z,2.07
2018-07-20T05:15:05.601Z,1.70
2018-07-20T05:17:33.615Z,1.77
2018-07-20T05:20:01.881Z,2.17
2018-07-20T05:22:29.944Z,1.63
2018-07-20T05:24:58.036Z,1.77
2018-07-20T05:27:26.052Z,1.87
2018-07-20T05:29:54.057Z,2.20
2018-07-20T05:32:22.089Z,1.50
2018-07-20T05:34:50.173Z,2.00
2018-07-20T05:37:18.167Z,1.40
2018-07-20T05:39:46.320Z,1.60
2018-07-20T05:42:14.314Z,1.73
2018-07-20T05:44:42.313Z,1.57
2018-07-20T05:47:10.928Z,1.60
2018-07-20T05:49:38.940Z,1.70
2018-07-20T05:52:06.947Z,1.63
2018-07-20T05:54:34.932Z,1.50
2018-07-20T05:57:02.925Z,1.40
2018-07-20T05:59:30.913Z,1.40
2018-07-20T06:01:58.914Z,1.60
2018-07-20T06:04:26.920Z,1.43
2018-07-20T06:06:55.039Z,1.40
2018-07-20T06:09:23.086Z,1.27
2018-07-20T06:11:51.106Z,1.50
2018-07-20T06:14:19.193Z,1.40
2018-07-20T06:16:47.214Z,1.50
2018-07-20T06:19:15.218Z,1.40
2018-07-20T06:21:43.289Z,1.50
2018-07-20T06:24:11.281Z,1.30
2018-07-20T06:26:39.284Z,1.70
2018-07-20T06:29:07.286Z,1.80
2018-07-20T06:31:35.337Z,1.40
2018-07-20T06:34:03.344Z,1.37
2018-07-20T06:36:31.376Z,1.37
2018-07-20T06:38:59.410Z,1.50
2018-07-20T06:41:27.432Z,1.30
2018-07-20T06:43:55.472Z,1.23
2018-07-20T06:46:23.544Z,1.30
2018-07-20T06:48:51.548Z,1.37
2018-07-20T06:51:19.593Z,1.60
2018-07-20T06:53:47.596Z,1.13
2018-07-20T06:56:15.612Z,1.30
2018-07-20T06:58:43.736Z,1.10
2018-07-20T07:01:11.721Z,1.57
2018-07-20T07:03:39.887Z,1.20
2018-07-20T07:06:07.932Z,1.00
2018-07-20T07:08:35.941Z,1.03
2018-07-20T07:11:03.956Z,1.20
2018-07-20T07:13:32.152Z,1.13
2018-07-20T07:16:00.422Z,1.23
2018-07-20T07:18:28.465Z,1.43
2018-07-20T07:20:56.576Z,1.50
2018-07-20T07:23:24.661Z,1.37
2018-07-20T07:25:53.125Z,1.10
2018-07-20T07:28:21.080Z,1.20
2018-07-20T07:30:49.172Z,1.10
2018-07-20T07:33:17.221Z,1.43
2018-07-20T07:35:45.232Z,1.10
2018-07-20T07:38:13.228Z,1.00
2018-07-20T07:40:41.242Z,1.00
2018-07-20T07:43:09.323Z,0.90
2018-07-20T07:45:37.322Z,1.10
2018-07-20T07:48:05.348Z,1.30
2018-07-20T07:50:33.408Z,0.93
2018-07-20T07:53:01.430Z,1.30
2018-07-20T07:55:29.436Z,1.50
2018-07-20T07:57:57.444Z,1.00
2018-07-20T08:00:25.480Z,0.90
2018-07-20T08:02:53.520Z,1.10
2018-07-20T08:05:21.543Z,0.90
2018-07-20T08:07:49.548Z,1.23
2018-07-20T08:10:17.609Z,1.20
2018-07-20T08:12:45.573Z,1.00
2018-07-20T08:15:13.573Z,0.90
2018-07-20T08:17:41.592Z,1.30
2018-07-20T08:20:09.620Z,0.93
2018-07-20T08:22:37.672Z,1.00
2018-07-20T08:25:05.688Z,1.03
2018-07-20T08:27:33.716Z,1.00
2018-07-20T08:30:01.784Z,1.50
2018-07-20T08:32:29.797Z,0.70
2018-07-20T08:34:57.842Z,1.03
2018-07-20T08:37:25.948Z,1.10
2018-07-20T08:39:54.099Z,1.10
2018-07-20T08:42:22.104Z,0.90
2018-07-20T08:44:50.132Z,1.10
2018-07-20T08:47:18.201Z,1.13
2018-07-20T08:49:46.259Z,1.27
2018-07-20T08:52:14.341Z,1.10
2018-07-20T08:54:42.368Z,1.07
2018-07-20T08:57:10.817Z,1.23
2018-07-20T08:59:39.128Z,1.03
2018-07-20T09:02:07.415Z,0.90
2018-07-20T09:04:35.801Z,1.00
2018-07-20T09:07:04.049Z,1.10
2018-07-20T09:09:32.235Z,1.23
2018-07-20T09:12:00.242Z,0.97
2018-07-20T09:14:29.528Z,1.00
2018-07-20T09:16:57.773Z,1.47
2018-07-20T09:19:25.852Z,0.93
2018-07-20T09:21:54.061Z,1.50
2018-07-20T09:24:22.397Z,1.20
2018-07-20T09:26:51.654Z,0.90
2018-07-20T09:29:19.888Z,1.40
2018-07-20T09:31:47.993Z,1.20
2018-07-20T09:34:16.285Z,1.13
2018-07-20T09:36:44.648Z,1.30
2018-07-20T09:39:13.065Z,1.27
2018-07-20T09:41:41.233Z,1.30
2018-07-20T09:44:10.176Z,1.20
2018-07-20T09:46:38.460Z,1.50
2018-07-20T09:49:06.762Z,1.40
2018-07-20T09:51:35.555Z,1.20
2018-07-20T09:54:03.617Z,1.20
2018-07-20T09:56:31.660Z,1.33
2018-07-20T09:58:59.710Z,1.50
2018-07-20T10:01:27.714Z,1.40
2018-07-20T10:03:55.759Z,1.70
2018-07-20T10:06:23.756Z,1.30
2018-07-20T10:08:51.800Z,1.67
2018-07-20T10:11:19.855Z,1.17
2018-07-20T10:13:47.876Z,1.50
2018-07-20T10:16:15.940Z,1.40
2018-07-20T10:18:43.994Z,1.90
2018-07-20T10:21:12.105Z,1.30
2018-07-20T10:23:40.193Z,1.70
2018-07-20T10:26:09.118Z,1.90
2018-07-20T10:28:37.429Z,1.30
2018-07-20T10:31:05.676Z,1.60
2018-07-20T10:33:33.976Z,1.73
2018-07-20T10:36:02.241Z,2.60
2018-07-20T10:38:30.353Z,2.73
2018-07-20T10:40:58.631Z,2.80
2018-07-20T10:43:26.824Z,2.80
2018-07-20T10:45:54.874Z,1.67
2018-07-20T10:48:23.280Z,2.60
2018-07-20T10:50:51.417Z,2.30
2018-07-20T10:53:19.570Z,2.30
2018-07-20T10:55:47.593Z,2.10
2018-07-20T10:58:15.694Z,1.70
2018-07-20T11:00:50.302Z,2.10
2018-07-20T11:03:18.553Z,2.40
2018-07-20T11:05:46.684Z,1.70
2018-07-20T11:08:14.832Z,2.20
2018-07-20T11:10:43.032Z,2.00
2018-07-20T11:13:11.295Z,3.60
2018-07-20T11:15:39.314Z,2.33
2018-07-20T11:18:08.474Z,2.17
2018-07-20T11:20:36.457Z,2.07
2018-07-20T11:23:04.648Z,2.70
2018-07-20T11:25:32.668Z,1.70
2018-07-20T11:28:00.768Z,2.10
2018-07-20T11:30:28.876Z,2.07
2018-07-20T11:32:57.397Z,2.57
2018-07-20T11:35:25.459Z,2.10
2018-07-20T11:37:53.490Z,2.30
2018-07-20T11:40:21.481Z,2.50
2018-07-20T11:42:49.546Z,1.90
2018-07-20T11:45:17.576Z,2.40
2018-07-20T11:47:45.624Z,2.27
2018-07-20T11:50:13.677Z,2.30
2018-07-20T11:52:41.689Z,2.47
2018-07-20T11:55:09.777Z,2.20
2018-07-20T11:57:37.819Z,2.53
2018-07-20T12:00:05.845Z,2.57
2018-07-20T12:02:33.911Z,2.20
2018-07-20T12:05:01.912Z,2.20
2018-07-20T12:07:30.088Z,2.20
2018-07-20T12:09:58.108Z,2.00
2018-07-20T12:12:26.145Z,2.17
2018-07-20T12:14:54.196Z,2.57
2018-07-20T12:17:22.243Z,2.30
2018-07-20T12:19:50.283Z,2.23
2018-07-20T12:22:18.409Z,2.10
2018-07-20T12:24:46.688Z,2.27
2018-07-20T12:27:14.949Z,2.00
2018-07-20T12:29:43.152Z,2.10
2018-07-20T12:32:11.350Z,2.43
2018-07-20T12:34:39.663Z,1.90
2018-07-20T12:37:08.010Z,2.13
2018-07-20T12:39:36.090Z,2.10
2018-07-20T12:42:04.356Z,1.90
2018-07-20T12:44:32.520Z,2.60
2018-07-20T12:47:01.677Z,2.00
2018-07-20T12:49:29.772Z,2.40
2018-07-20T12:51:57.853Z,2.63
2018-07-20T12:54:25.918Z,2.40
2018-07-20T12:56:54.107Z,2.40
2018-07-20T12:59:22.165Z,2.23
2018-07-20T13:01:50.304Z,2.03
2018-07-20T13:04:18.324Z,2.73
2018-07-20T13:06:46.457Z,2.20
2018-07-20T13:09:14.522Z,2.73
2018-07-20T13:11:43.276Z,2.40
2018-07-20T13:14:12.181Z,3.07
2018-07-20T13:16:40.981Z,3.00
2018-07-20T13:19:09.108Z,2.80
2018-07-20T13:21:37.177Z,3.00
2018-07-20T13:24:05.488Z,2.87
2018-07-20T13:26:33.616Z,3.00
2018-07-20T13:29:01.796Z,2.43
2018-07-20T13:31:29.832Z,2.57
2018-07-20T13:33:57.923Z,2.20
2018-07-20T13:36:26.101Z,3.10
2018-07-20T13:38:54.169Z,3.37
2018-07-20T13:41:22.427Z,3.60
2018-07-20T13:43:50.555Z,3.00
2018-07-20T13:46:18.629Z,3.03
2018-07-20T13:48:46.741Z,3.60
2018-07-20T13:51:14.812Z,3.40
2018-07-20T13:53:43.012Z,2.93
2018-07-20T13:56:11.172Z,2.53
2018-07-20T13:58:39.313Z,2.67
2018-07-20T14:01:07.593Z,3.00
2018-07-20T14:03:35.795Z,3.00
2018-07-20T14:06:03.863Z,3.70
2018-07-20T14:08:32.265Z,3.97
2018-07-20T14:11:00.344Z,4.20
2018-07-20T14:13:28.553Z,3.80
2018-07-20T14:15:56.860Z,4.37
2018-07-20T14:18:24.996Z,3.73
2018-07-20T14:20:53.176Z,4.30
2018-07-20T14:23:21.495Z,4.57
2018-07-20T14:25:50.135Z,3.77
2018-07-20T14:28:18.132Z,3.37
2018-07-20T14:30:46.204Z,3.87
2018-07-20T14:33:14.286Z,4.90
2018-07-20T14:35:42.422Z,3.90
2018-07-20T14:38:10.596Z,4.60
2018-07-20T14:40:38.637Z,5.40
2018-07-20T14:43:07.022Z,5.00
2018-07-20T14:45:35.118Z,4.00
2018-07-20T14:48:03.222Z,4.10
2018-07-20T14:50:31.290Z,5.00
2018-07-20T14:52:59.370Z,4.50
2018-07-20T14:55:27.516Z,4.67
2018-07-20T14:57:55.858Z,4.90
2018-07-20T15:00:23.851Z,4.30
2018-07-20T15:02:51.860Z,4.80
2018-07-20T15:05:19.967Z,4.23
2018-07-20T15:07:47.985Z,4.60
2018-07-20T15:10:16.095Z,5.53
2018-07-20T15:12:44.121Z,4.50
2018-07-20T15:15:12.129Z,5.37
2018-07-20T15:17:40.216Z,4.47
2018-07-20T15:20:08.637Z,5.03
2018-07-20T15:22:36.712Z,4.87
2018-07-20T15:25:05.351Z,5.37
2018-07-20T15:27:33.524Z,5.07
2018-07-20T15:30:01.596Z,4.77
2018-07-20T15:32:29.630Z,4.60
2018-07-20T15:34:57.618Z,4.40
2018-07-20T15:37:25.738Z,5.07
2018-07-20T15:39:53.845Z,4.83
2018-07-20T15:42:21.771Z,5.10
2018-07-20T15:44:50.075Z,5.03
2018-07-20T15:47:18.117Z,4.40
2018-07-20T15:49:46.076Z,5.50
2018-07-20T15:54:42.091Z,4.80
2018-07-20T15:57:10.096Z,4.43
2018-07-20T15:59:38.131Z,5.03
2018-07-20T16:02:06.400Z,4.73
2018-07-20T16:04:34.408Z,4.30
2018-07-20T16:07:02.618Z,5.50
2018-07-20T16:09:30.629Z,4.63
2018-07-20T16:11:58.645Z,5.30
2018-07-20T16:14:26.648Z,4.17
2018-07-20T16:16:54.676Z,4.43
2018-07-20T16:19:22.730Z,4.93
2018-07-20T16:21:50.730Z,5.00
2018-07-20T16:24:18.778Z,4.67
2018-07-20T16:26:46.820Z,5.40
2018-07-20T16:29:14.828Z,4.43
2018-07-20T16:31:42.833Z,4.43
2018-07-20T16:34:10.848Z,4.50
2018-07-20T16:36:38.905Z,4.80
2018-07-20T16:39:08.612Z,5.23
2018-07-20T16:41:36.768Z,4.70
2018-07-20T16:44:04.801Z,5.07
2018-07-20T16:46:32.873Z,5.00
2018-07-20T16:49:00.914Z,4.30
2018-07-20T16:51:28.937Z,5.70
2018-07-20T16:53:57.015Z,4.80
2018-07-20T16:56:25.024Z,5.00
2018-07-20T16:58:53.056Z,4.87
2018-07-20T17:01:21.076Z,5.03
2018-07-20T17:03:49.247Z,4.93
2018-07-20T17:06:17.344Z,4.60
2018-07-20T17:08:45.444Z,4.63
2018-07-20T17:11:13.567Z,4.10
2018-07-20T17:13:41.675Z,4.77
2018-07-20T17:16:09.713Z,5.10
2018-07-20T17:18:37.829Z,4.63
2018-07-20T17:21:05.876Z,4.60
2018-07-20T17:23:34.005Z,5.17
2018-07-20T17:26:02.141Z,5.60
2018-07-20T17:28:30.335Z,4.97
2018-07-20T17:30:58.501Z,4.93
2018-07-20T17:33:26.682Z,4.63
2018-07-20T17:35:55.322Z,4.73
2018-07-20T17:38:23.453Z,4.90
2018-07-20T17:40:51.660Z,5.07
2018-07-20T17:43:19.849Z,4.33
2018-07-20T17:45:48.495Z,5.17
2018-07-20T17:48:16.658Z,5.33
2018-07-20T17:50:44.959Z,4.70
2018-07-20T17:53:13.096Z,5.10
2018-07-20T17:55:41.180Z,4.63
2018-07-20T17:58:09.311Z,4.67
2018-07-20T18:00:37.316Z,4.27
2018-07-20T18:03:05.461Z,4.53
2018-07-20T18:05:33.461Z,4.80
2018-07-20T18:08:01.909Z,4.23
2018-07-20T18:10:30.107Z,3.27
2018-07-20T18:12:58.089Z,3.60
2018-07-20T18:15:26.102Z,3.20
2018-07-20T18:17:54.937Z,3.10
2018-07-20T18:20:23.992Z,2.60
2018-07-20T18:22:52.131Z,2.80
2018-07-20T18:25:20.413Z,2.73
2018-07-20T18:27:48.598Z,3.53
2018-07-20T18:30:16.756Z,2.70
2018-07-20T18:32:44.949Z,2.70
2018-07-20T18:35:12.984Z,3.10
2018-07-20T18:37:41.172Z,3.00
2018-07-20T18:40:09.281Z,3.00
2018-07-20T18:42:37.576Z,2.63
2018-07-20T18:45:06.471Z,2.53
2018-07-20T18:47:34.511Z,2.50
2018-07-20T18:50:02.698Z,3.17
2018-07-20T18:52:30.785Z,2.53
2018-07-20T18:54:58.824Z,2.00
2018-07-20T18:57:26.897Z,2.50
2018-07-20T18:59:56.213Z,2.47
2018-07-20T19:02:24.257Z,2.33
2018-07-20T19:04:52.401Z,2.60
2018-07-20T19:07:20.553Z,2.50
2018-07-20T19:09:48.899Z,2.37
2018-07-20T19:12:16.977Z,2.27
2018-07-20T19:14:45.179Z,2.57
2018-07-20T19:17:13.425Z,2.67
2018-07-20T19:19:41.588Z,2.57
2018-07-20T19:22:09.820Z,2.40
2018-07-20T19:24:37.916Z,2.40
2018-07-20T19:27:06.273Z,2.67
2018-07-20T19:29:34.681Z,2.57
2018-07-20T19:32:02.757Z,2.03
2018-07-20T19:34:30.977Z,2.43
2018-07-20T19:36:59.136Z,3.00
2018-07-20T19:39:27.334Z,2.60
2018-07-20T19:41:55.608Z,3.30
2018-07-20T19:44:23.809Z,2.77
2018-07-20T19:46:51.937Z,2.77
2018-07-20T19:49:20.200Z,2.30
2018-07-20T19:51:48.260Z,2.33
2018-07-20T19:54:16.456Z,2.03
2018-07-20T19:56:44.770Z,3.33
2018-07-20T19:59:13.050Z,2.97
2018-07-20T20:01:41.152Z,2.30
2018-07-20T20:04:09.307Z,2.60
2018-07-20T20:06:37.588Z,2.70
2018-07-20T20:09:07.770Z,2.37
2018-07-20T20:11:35.820Z,2.27
2018-07-20T20:14:03.969Z,2.67
2018-07-20T20:16:32.189Z,2.30
2018-07-20T20:19:00.214Z,2.20
2018-07-20T20:21:28.220Z,2.47
2018-07-20T20:23:56.268Z,2.37
2018-07-20T20:26:24.289Z,2.13
2018-07-20T20:28:52.372Z,2.90
2018-07-20T20:31:20.472Z,4.00
2018-07-20T20:33:48.473Z,2.53
2018-07-20T20:36:16.609Z,2.60
2018-07-20T20:38:44.631Z,2.10
2018-07-20T20:41:12.654Z,2.50
2018-07-20T20:43:40.904Z,2.60
2018-07-20T20:46:08.970Z,2.37
2018-07-20T20:48:38.076Z,2.50
2018-07-20T20:51:06.127Z,2.40
2018-07-20T20:53:34.088Z,2.80
2018-07-20T20:56:02.213Z,2.47
2018-07-20T20:58:30.293Z,3.17
2018-07-20T21:00:58.341Z,2.90
2018-07-20T21:03:26.357Z,2.77
2018-07-20T21:05:54.355Z,2.80
2018-07-20T21:08:22.537Z,2.57
2018-07-20T21:10:50.617Z,3.30
2018-07-20T21:13:18.731Z,2.73
2018-07-20T21:15:46.789Z,2.97
2018-07-20T21:18:15.217Z,2.20
2018-07-20T21:20:43.348Z,3.00
2018-07-20T21:23:11.401Z,3.20
2018-07-20T21:25:39.477Z,2.60
2018-07-20T21:28:07.483Z,2.43
2018-07-20T21:30:35.614Z,2.70
2018-07-20T21:33:03.641Z,2.83
2018-07-20T21:35:31.648Z,2.60
2018-07-20T21:37:59.664Z,2.63
2018-07-20T21:40:27.978Z,3.00
2018-07-20T21:42:56.008Z,3.43
2018-07-20T21:45:24.047Z,2.40
2018-07-20T21:47:52.140Z,3.00
2018-07-20T21:50:20.156Z,2.93
2018-07-20T21:52:48.337Z,2.87
2018-07-20T21:55:16.436Z,3.27
2018-07-20T21:57:44.496Z,2.90
2018-07-20T22:00:15.381Z,3.43
2018-07-20T22:02:43.451Z,2.67
2018-07-20T22:05:11.437Z,3.30
2018-07-20T22:07:39.508Z,2.90
2018-07-20T22:10:08.092Z,2.40
2018-07-20T22:12:36.345Z,3.10
2018-07-20T22:15:05.020Z,3.00
2018-07-20T22:17:33.149Z,2.53
2018-07-20T22:20:01.165Z,3.13
2018-07-20T22:22:29.220Z,2.83
2018-07-20T22:24:57.419Z,2.67
2018-07-20T22:27:25.420Z,2.70
2018-07-20T22:29:53.550Z,3.17
2018-07-20T22:32:21.949Z,2.97
2018-07-20T22:34:50.035Z,2.70
2018-07-20T22:37:18.036Z,2.90
2018-07-20T22:39:46.067Z,2.43
2018-07-20T22:42:14.065Z,3.43
2018-07-20T22:44:42.323Z,3.50
2018-07-20T22:47:10.406Z,3.07
2018-07-20T22:49:38.445Z,2.77
2018-07-20T22:52:06.548Z,2.93
2018-07-20T22:54:35.641Z,2.50
2018-07-20T22:57:03.646Z,3.23
2018-07-20T22:59:31.672Z,3.10
2018-07-20T23:01:59.789Z,2.97
2018-07-20T23:04:27.820Z,3.33
2018-07-20T23:06:55.889Z,3.20
2018-07-20T23:09:24.004Z,3.47
2018-07-20T23:11:52.041Z,3.97
2018-07-20T23:14:20.096Z,3.03
2018-07-20T23:16:48.120Z,2.70
2018-07-20T23:19:16.145Z,2.70
2018-07-20T23:21:44.155Z,3.00
2018-07-20T23:24:12.229Z,3.10
2018-07-20T23:26:40.268Z,2.83
2018-07-20T23:29:08.325Z,3.30
2018-07-20T23:31:36.313Z,3.10
2018-07-20T23:34:04.369Z,3.80
2018-07-20T23:36:32.383Z,4.20
2018-07-20T23:39:00.370Z,2.87
2018-07-20T23:41:28.513Z,3.17
2018-07-20T23:43:56.502Z,2.90
2018-07-20T23:46:24.628Z,3.07
2018-07-20T23:48:52.604Z,3.50
2018-07-20T23:51:20.649Z,3.00
2018-07-20T23:53:48.693Z,3.67
2018-07-20T23:56:16.693Z,3.10
2018-07-20T23:58:44.694Z,3.80
